createdAt,value
2019-06-20T00:01:07.203Z,13.70
2019-06-20T00:03:36.284Z,14.15
2019-06-20T00:06:05.061Z,12.93
2019-06-20T00:08:35.666Z,17.05
2019-06-20T00:11:04.379Z,15.93
2019-06-20T00:13:42.257Z,14.53
2019-06-20T00:16:10.961Z,17.10
2019-06-20T00:18:39.595Z,17.98
2019-06-20T00:21:08.303Z,21.15
2019-06-20T00:23:42.985Z,15.63
2019-06-20T00:26:11.617Z,21.93
2019-06-20T00:28:40.244Z,17.50
2019-06-20T00:31:08.971Z,19.57
2019-06-20T00:33:37.583Z,24.77
2019-06-20T00:36:06.352Z,22.42
2019-06-20T00:38:50.089Z,21.52
2019-06-20T00:41:18.906Z,20.57
2019-06-20T00:43:49.508Z,23.67
2019-06-20T00:46:18.131Z,25.25
2019-06-20T00:48:46.833Z,24.52
2019-06-20T00:51:15.544Z,27.07
2019-06-20T00:53:44.165Z,24.80
2019-06-20T00:56:12.849Z,26.33
2019-06-20T00:58:53.415Z,29.45
2019-06-20T01:01:22.053Z,26.82
2019-06-20T01:03:50.748Z,29.12
2019-06-20T01:06:19.389Z,28.70
2019-06-20T01:09:03.487Z,28.23
2019-06-20T01:11:32.122Z,31.73
2019-06-20T01:14:00.730Z,31.70
2019-06-20T01:17:02.901Z,30.37
2019-06-20T01:19:31.576Z,27.02
2019-06-20T01:22:00.222Z,33.13
2019-06-20T01:24:29.055Z,33.95
2019-06-20T01:26:57.706Z,26.70
2019-06-20T01:29:26.298Z,29.23
2019-06-20T01:31:58.020Z,29.42
2019-06-20T01:34:26.722Z,30.90
2019-06-20T01:36:55.486Z,37.33
2019-06-20T01:39:32.612Z,30.60
2019-06-20T01:42:01.439Z,32.93
2019-06-20T01:44:51.293Z,34.83
2019-06-20T01:47:19.932Z,32.95
2019-06-20T01:49:48.689Z,29.50
2019-06-20T01:52:25.499Z,32.15
2019-06-20T01:54:54.136Z,37.38
2019-06-20T01:57:22.843Z,40.03
2019-06-20T01:59:51.491Z,34.08
2019-06-20T02:02:20.165Z,40.40
2019-06-20T02:04:54.110Z,40.98
2019-06-20T02:07:22.726Z,43.35
2019-06-20T02:09:51.374Z,36.95
2019-06-20T02:12:20.081Z,36.83
2019-06-20T02:14:48.722Z,41.13
2019-06-20T02:17:20.602Z,36.90
2019-06-20T02:19:49.398Z,42.30
2019-06-20T02:22:17.998Z,42.70
2019-06-20T02:24:52.769Z,42.08
2019-06-20T02:27:22.133Z,40.92
2019-06-20T02:29:50.952Z,36.63
2019-06-20T02:32:19.565Z,40.28
2019-06-20T02:34:48.253Z,42.13
2019-06-20T02:37:16.974Z,43.98
2019-06-20T02:39:45.622Z,40.65
2019-06-20T02:42:14.497Z,41.58
2019-06-20T02:44:49.044Z,45.12
2019-06-20T02:47:24.935Z,44.50
2019-06-20T02:49:53.745Z,48.42
2019-06-20T02:52:23.446Z,49.00
2019-06-20T02:54:52.124Z,45.63
2019-06-20T02:57:20.737Z,48.10
2019-06-20T02:59:52.424Z,46.33
2019-06-20T03:02:21.026Z,46.70
2019-06-20T03:05:01.672Z,47.08
2019-06-20T03:07:30.281Z,41.88
2019-06-20T03:09:58.918Z,47.50
2019-06-20T03:12:27.607Z,48.33
2019-06-20T03:14:56.237Z,51.65
2019-06-20T03:17:25.364Z,55.88
2019-06-20T03:19:53.995Z,52.67
2019-06-20T03:22:22.610Z,48.98
2019-06-20T03:24:51.264Z,50.65
2019-06-20T03:27:19.951Z,53.25
2019-06-20T03:29:48.689Z,52.55
2019-06-20T03:32:17.445Z,50.83
2019-06-20T03:34:46.084Z,53.52
2019-06-20T03:37:20.891Z,55.00
2019-06-20T03:39:49.601Z,59.38
2019-06-20T03:42:18.234Z,54.38
2019-06-20T03:45:02.078Z,62.30
2019-06-20T03:47:26.654Z,65.45
2019-06-20T03:49:55.282Z,56.18
2019-06-20T03:52:25.976Z,57.88
2019-06-20T03:54:54.612Z,55.75
2019-06-20T03:57:23.227Z,59.58
2019-06-20T03:59:52.052Z,59.95
2019-06-20T04:02:20.730Z,60.00
2019-06-20T04:04:49.340Z,57.38
2019-06-20T04:07:17.981Z,61.88
2019-06-20T04:09:46.593Z,61.73
2019-06-20T04:12:15.229Z,59.27
2019-06-20T04:14:43.851Z,62.48
2019-06-20T04:17:12.499Z,58.92
2019-06-20T04:19:41.188Z,60.12
2019-06-20T04:22:09.837Z,75.05
2019-06-20T04:24:39.986Z,59.13
2019-06-20T04:27:08.749Z,55.65
2019-06-20T04:29:37.370Z,64.53
2019-06-20T04:32:06.386Z,57.53
2019-06-20T04:34:35.251Z,61.25
2019-06-20T04:37:03.888Z,62.58
2019-06-20T04:39:35.538Z,62.00
2019-06-20T04:42:04.139Z,62.55
2019-06-20T04:44:32.807Z,62.30
2019-06-20T04:47:03.050Z,61.75
2019-06-20T04:49:31.814Z,66.87
2019-06-20T04:52:00.406Z,59.73
2019-06-20T04:54:29.020Z,61.37
2019-06-20T04:56:57.816Z,62.83
2019-06-20T04:59:26.423Z,58.33
2019-06-20T05:01:55.107Z,63.75
2019-06-20T05:04:24.839Z,55.08
2019-06-20T05:07:02.469Z,61.48
2019-06-20T05:09:31.107Z,67.15
2019-06-20T05:11:59.887Z,66.33
2019-06-20T05:14:28.648Z,64.12
2019-06-20T05:16:57.244Z,62.03
2019-06-20T05:19:25.909Z,59.00
2019-06-20T05:21:54.580Z,63.90
2019-06-20T05:24:25.555Z,60.67
2019-06-20T05:26:54.521Z,63.52
2019-06-20T05:29:23.156Z,64.67
2019-06-20T05:31:51.953Z,63.75
2019-06-20T05:34:20.657Z,65.72
2019-06-20T05:36:49.661Z,65.10
2019-06-20T05:39:18.450Z,64.35
2019-06-20T05:41:47.063Z,59.13
2019-06-20T05:44:15.669Z,65.65
2019-06-20T05:46:44.420Z,61.08
2019-06-20T05:49:13.020Z,62.67
2019-06-20T05:51:42.548Z,55.08
2019-06-20T05:54:11.209Z,65.83
2019-06-20T05:56:39.893Z,58.00
2019-06-20T05:59:09.493Z,54.80
2019-06-20T06:01:38.195Z,54.45
2019-06-20T06:04:07.843Z,57.75
2019-06-20T06:06:36.474Z,58.95
2019-06-20T06:09:07.265Z,56.60
2019-06-20T06:11:35.899Z,60.17
2019-06-20T06:14:04.658Z,58.58
2019-06-20T06:16:33.268Z,64.95
2019-06-20T06:19:01.894Z,59.85
2019-06-20T06:21:30.496Z,58.17
2019-06-20T06:24:44.780Z,65.17
2019-06-20T06:27:13.398Z,53.95
2019-06-20T06:29:42.034Z,59.27
2019-06-20T06:32:10.815Z,54.03
2019-06-20T06:34:39.500Z,55.98
2019-06-20T06:37:08.130Z,53.15
2019-06-20T06:39:36.849Z,54.03
2019-06-20T06:42:05.633Z,50.78
2019-06-20T06:44:34.462Z,61.10
2019-06-20T06:47:03.081Z,57.60
2019-06-20T06:49:31.830Z,58.60
2019-06-20T06:52:00.580Z,62.55
2019-06-20T06:54:29.175Z,53.20
2019-06-20T06:56:57.876Z,59.98
2019-06-20T06:59:26.504Z,55.95
2019-06-20T07:01:55.287Z,51.58
2019-06-20T07:04:23.994Z,55.58
2019-06-20T07:06:52.637Z,60.98
2019-06-20T07:09:21.238Z,54.18
2019-06-20T07:11:50.151Z,49.70
2019-06-20T07:14:18.829Z,54.48
2019-06-20T07:16:59.675Z,52.48
2019-06-20T07:19:17.801Z,52.20
2019-06-20T07:21:46.613Z,42.60
2019-06-20T07:24:15.224Z,43.13
2019-06-20T07:26:43.936Z,43.87
2019-06-20T07:29:12.581Z,44.10
2019-06-20T07:31:41.358Z,42.62
2019-06-20T07:34:09.965Z,41.63
2019-06-20T07:36:38.585Z,41.60
2019-06-20T07:39:19.397Z,41.25
2019-06-20T07:41:48.013Z,45.28
2019-06-20T07:44:16.632Z,37.00
2019-06-20T07:46:45.350Z,41.80
2019-06-20T07:49:13.952Z,39.45
2019-06-20T07:51:42.632Z,39.45
2019-06-20T07:54:11.270Z,38.98
2019-06-20T07:56:39.987Z,35.78
2019-06-20T07:59:08.694Z,35.40
2019-06-20T08:01:37.397Z,35.10
2019-06-20T08:04:06.145Z,34.58
2019-06-20T08:06:34.854Z,38.75
2019-06-20T08:09:04.590Z,35.58
2019-06-20T08:11:36.338Z,40.60
2019-06-20T08:14:05.394Z,41.05
2019-06-20T08:16:34.140Z,34.05
2019-06-20T08:19:02.911Z,36.33
2019-06-20T08:21:34.810Z,40.83
2019-06-20T08:24:03.565Z,39.38
2019-06-20T08:26:32.250Z,41.20
2019-06-20T08:29:15.837Z,36.65
2019-06-20T08:31:31.978Z,33.90
2019-06-20T08:34:15.858Z,31.70
2019-06-20T08:36:44.478Z,33.33
2019-06-20T08:39:13.128Z,31.23
2019-06-20T08:41:41.870Z,33.58
2019-06-20T08:44:11.975Z,26.45
2019-06-20T08:46:40.595Z,28.50
2019-06-20T08:49:09.320Z,23.45
2019-06-20T08:51:38.076Z,23.75
2019-06-20T08:54:06.856Z,24.75
2019-06-20T08:56:35.571Z,24.67
2019-06-20T08:59:04.845Z,24.55
2019-06-20T09:01:33.716Z,18.37
2019-06-20T09:06:30.956Z,28.80
2019-06-20T09:09:00.079Z,23.32
2019-06-20T09:11:28.776Z,32.30
2019-06-20T09:13:57.510Z,19.52
2019-06-20T09:16:26.100Z,22.85
2019-06-20T09:18:55.325Z,29.50
2019-06-20T09:21:25.152Z,28.45
2019-06-20T09:23:54.172Z,30.70
2019-06-20T09:26:24.026Z,26.75
2019-06-20T09:28:54.032Z,27.10
2019-06-20T09:31:23.289Z,24.67
2019-06-20T09:33:53.542Z,24.67
2019-06-20T09:36:22.289Z,29.32
2019-06-20T09:38:52.073Z,28.27
2019-06-20T09:41:21.289Z,25.30
2019-06-20T09:43:50.078Z,25.25
2019-06-20T09:46:19.975Z,22.02
2019-06-20T09:48:49.317Z,30.52
2019-06-20T09:51:22.025Z,30.10
2019-06-20T09:53:51.851Z,29.80
2019-06-20T09:56:20.668Z,31.82
2019-06-20T09:58:49.625Z,30.15
2019-06-20T10:01:19.452Z,31.60
2019-06-20T10:03:49.009Z,35.08
2019-06-20T10:06:18.534Z,25.85
2019-06-20T10:08:48.294Z,27.85
2019-06-20T10:11:32.241Z,32.48
2019-06-20T10:14:00.866Z,33.50
2019-06-20T10:16:44.847Z,27.50
2019-06-20T10:18:59.842Z,29.10
2019-06-20T10:21:31.594Z,31.93
2019-06-20T10:24:00.210Z,28.07
2019-06-20T10:26:28.983Z,25.27
2019-06-20T10:29:09.782Z,25.45
2019-06-20T10:31:38.553Z,25.97
2019-06-20T10:34:13.385Z,29.60
2019-06-20T10:36:42.076Z,26.85
2019-06-20T10:39:11.928Z,26.85
2019-06-20T10:41:40.788Z,28.12
2019-06-20T10:44:09.575Z,25.80
2019-06-20T10:46:38.251Z,28.87
2019-06-20T10:49:07.027Z,29.12
2019-06-20T10:51:42.374Z,28.45
2019-06-20T10:54:10.667Z,27.85
2019-06-20T10:56:40.464Z,29.45
2019-06-20T10:59:09.793Z,26.65
2019-06-20T11:01:39.873Z,23.92
2019-06-20T11:04:08.901Z,24.10
2019-06-20T11:06:39.887Z,26.57
2019-06-20T11:09:08.890Z,21.93
2019-06-20T11:11:47.119Z,25.43
2019-06-20T11:14:15.935Z,26.75
2019-06-20T11:16:45.205Z,24.23
2019-06-20T11:19:13.962Z,24.70
2019-06-20T11:21:43.212Z,28.67
2019-06-20T11:24:18.567Z,29.77
2019-06-20T11:26:47.978Z,31.35
2019-06-20T11:29:16.942Z,32.03
2019-06-20T11:31:47.804Z,30.05
2019-06-20T11:34:15.910Z,32.15
2019-06-20T11:36:45.139Z,33.85
2019-06-20T11:39:13.905Z,39.85
2019-06-20T11:41:43.672Z,34.18
2019-06-20T11:44:12.475Z,36.58
2019-06-20T11:46:42.598Z,45.92
2019-06-20T11:49:11.320Z,45.90
2019-06-20T11:51:40.128Z,46.45
2019-06-20T11:54:08.952Z,33.48
2019-06-20T11:56:37.573Z,25.10
2019-06-20T11:59:06.290Z,25.88
2019-06-20T12:01:35.065Z,27.50
2019-06-20T12:04:03.747Z,28.50
2019-06-20T12:06:32.458Z,26.45
2019-06-20T12:09:01.081Z,25.17
2019-06-20T12:11:29.826Z,29.55
2019-06-20T12:13:58.471Z,30.62
2019-06-20T12:16:27.183Z,26.57
2019-06-20T12:18:55.836Z,22.98
2019-06-20T12:21:24.513Z,18.57
2019-06-20T12:23:53.304Z,21.17
2019-06-20T12:26:21.965Z,20.97
2019-06-20T12:28:50.601Z,15.55
2019-06-20T12:31:22.377Z,12.47
2019-06-20T12:33:50.990Z,14.23
2019-06-20T12:36:19.704Z,17.77
2019-06-20T12:38:48.427Z,19.73
2019-06-20T12:41:17.116Z,20.08
2019-06-20T12:43:46.358Z,20.85
2019-06-20T12:46:16.121Z,22.75
2019-06-20T12:48:45.043Z,23.85
2019-06-20T12:51:13.965Z,25.57
2019-06-20T12:53:44.067Z,28.60
2019-06-20T12:56:12.930Z,30.82
2019-06-20T12:58:42.229Z,25.52
2019-06-20T13:01:11.088Z,27.58
2019-06-20T13:03:40.394Z,28.00
2019-06-20T13:06:09.499Z,26.37
2019-06-20T13:08:40.202Z,25.17
2019-06-20T13:11:08.746Z,25.97
2019-06-20T13:13:38.830Z,20.80
2019-06-20T13:16:08.079Z,21.62
2019-06-20T13:18:36.707Z,21.93
2019-06-20T13:21:05.504Z,20.02
2019-06-20T13:23:34.206Z,14.70
2019-06-20T13:26:02.869Z,12.70
2019-06-20T13:28:31.644Z,11.38
2019-06-20T13:31:00.286Z,13.65
2019-06-20T13:33:28.881Z,9.93
2019-06-20T13:35:57.645Z,8.98
2019-06-20T13:38:26.324Z,10.50
2019-06-20T13:40:54.933Z,13.60
2019-06-20T13:43:24.590Z,10.40
2019-06-20T13:45:54.227Z,12.28
2019-06-20T13:48:26.054Z,9.60
2019-06-20T13:50:54.642Z,11.95
2019-06-20T13:53:23.248Z,9.00
2019-06-20T13:55:51.928Z,13.68
2019-06-20T13:58:20.645Z,10.53
2019-06-20T14:00:50.975Z,10.63
2019-06-20T14:03:19.826Z,12.15
2019-06-20T14:05:49.864Z,9.53
2019-06-20T14:08:19.598Z,11.22
2019-06-20T14:10:49.746Z,8.43
2019-06-20T14:13:24.001Z,9.95
2019-06-20T14:15:53.710Z,9.23
2019-06-20T14:18:22.441Z,8.40
2019-06-20T14:20:51.129Z,9.38
2019-06-20T14:23:19.874Z,7.90
2019-06-20T14:25:48.807Z,9.08
2019-06-20T14:28:17.495Z,6.05
2019-06-20T14:30:48.335Z,7.33
2019-06-20T14:33:17.174Z,7.33
2019-06-20T14:35:47.374Z,8.75
2019-06-20T14:38:16.134Z,9.00
2019-06-20T14:40:45.334Z,11.78
2019-06-20T14:43:14.154Z,11.12
2019-06-20T14:45:43.816Z,9.60
2019-06-20T14:48:13.181Z,9.63
2019-06-20T14:50:43.828Z,14.43
2019-06-20T14:53:13.040Z,10.05
2019-06-20T14:55:41.644Z,11.20
2019-06-20T14:58:11.439Z,17.75
2019-06-20T15:00:40.121Z,14.00
2019-06-20T15:03:09.839Z,12.43
2019-06-20T15:05:38.512Z,16.25
2019-06-20T15:08:07.205Z,18.62
2019-06-20T15:10:35.841Z,13.08
2019-06-20T15:13:04.524Z,20.35
2019-06-20T15:15:33.237Z,17.05
2019-06-20T15:18:01.915Z,15.10
2019-06-20T15:20:30.634Z,18.40
2019-06-20T15:23:00.391Z,19.10
2019-06-20T15:25:29.357Z,24.43
2019-06-20T15:27:58.080Z,22.60
2019-06-20T15:30:26.710Z,17.75
2019-06-20T15:33:07.495Z,15.13
2019-06-20T15:35:27.094Z,16.67
2019-06-20T15:37:57.467Z,19.23
2019-06-20T15:40:26.344Z,13.62
2019-06-20T15:42:55.449Z,14.18
2019-06-20T15:45:25.311Z,33.02
2019-06-20T15:47:54.089Z,95.25
2019-06-20T15:50:22.772Z,66.15
2019-06-20T15:52:51.406Z,56.83
2019-06-20T15:55:20.457Z,14.78
2019-06-20T15:57:49.171Z,50.63
2019-06-20T16:00:18.825Z,24.77
2019-06-20T16:02:47.456Z,19.17
2019-06-20T16:05:16.310Z,43.38
2019-06-20T16:07:44.941Z,58.13
2019-06-20T16:10:14.101Z,13.15
2019-06-20T16:12:42.785Z,11.63
2019-06-20T16:15:13.831Z,12.00
2019-06-20T16:17:42.517Z,10.58
2019-06-20T16:20:11.380Z,10.30
2019-06-20T16:22:40.030Z,10.95
2019-06-20T16:25:08.811Z,10.68
2019-06-20T16:27:37.532Z,52.38
2019-06-20T16:30:07.952Z,16.50
2019-06-20T16:32:36.657Z,102.92
2019-06-20T16:35:07.436Z,16.65
2019-06-20T16:37:36.291Z,31.70
2019-06-20T16:40:09.083Z,42.00
2019-06-20T16:42:37.765Z,22.35
2019-06-20T16:45:08.503Z,13.50
2019-06-20T16:47:37.385Z,31.40
2019-06-20T16:50:11.481Z,17.02
2019-06-20T16:52:40.194Z,15.68
2019-06-20T16:55:09.256Z,63.58
2019-06-20T16:57:37.964Z,152.10
2019-06-20T17:00:08.545Z,63.00
2019-06-20T17:02:37.333Z,165.60
2019-06-20T17:05:07.323Z,119.13
2019-06-20T17:07:36.093Z,37.00
2019-06-20T17:10:07.914Z,43.15
2019-06-20T17:12:36.689Z,22.73
2019-06-20T17:15:06.673Z,69.62
2019-06-20T17:17:35.427Z,23.95
2019-06-20T17:20:06.494Z,10.48
2019-06-20T17:22:35.176Z,10.88
2019-06-20T17:25:19.483Z,12.45
2019-06-20T17:27:48.081Z,10.32
2019-06-20T17:30:19.053Z,10.63
2019-06-20T17:32:47.792Z,18.30
2019-06-20T17:35:17.244Z,13.08
2019-06-20T17:37:46.025Z,76.87
2019-06-20T17:40:16.578Z,17.23
2019-06-20T17:42:46.265Z,15.38
2019-06-20T17:45:15.733Z,13.90
2019-06-20T17:47:44.415Z,16.20
2019-06-20T17:50:13.584Z,10.10
2019-06-20T17:52:42.564Z,29.63
2019-06-20T17:55:11.817Z,16.70
2019-06-20T17:57:40.525Z,23.75
2019-06-20T18:00:15.688Z,8.95
2019-06-20T18:02:44.390Z,8.75
2019-06-20T18:05:15.762Z,10.88
2019-06-20T18:07:44.472Z,18.48
2019-06-20T18:10:13.648Z,22.55
2019-06-20T18:12:42.414Z,15.20
2019-06-20T18:15:11.522Z,77.78
2019-06-20T18:17:40.240Z,140.03
2019-06-20T18:20:09.499Z,143.15
2019-06-20T18:22:39.153Z,137.55
2019-06-20T18:25:08.534Z,178.40
2019-06-20T18:27:37.208Z,118.28
2019-06-20T18:30:07.774Z,15.13
2019-06-20T18:32:36.542Z,27.50
2019-06-20T18:35:08.873Z,13.83
2019-06-20T18:37:37.550Z,10.78
2019-06-20T18:40:10.768Z,7.30
2019-06-20T18:42:39.813Z,87.25
2019-06-20T18:45:11.323Z,108.72
2019-06-20T18:47:40.002Z,20.08
2019-06-20T18:50:10.372Z,12.95
2019-06-20T18:52:51.536Z,16.42
2019-06-20T18:55:11.847Z,14.55
2019-06-20T18:57:40.591Z,8.80
2019-06-20T19:00:11.505Z,7.42
2019-06-20T19:02:40.248Z,9.98
2019-06-20T19:05:11.158Z,27.42
2019-06-20T19:07:39.896Z,7.00
2019-06-20T19:10:10.624Z,7.67
2019-06-20T19:12:39.481Z,12.40
2019-06-20T19:15:10.155Z,6.55
2019-06-20T19:17:38.898Z,9.40
2019-06-20T19:20:09.661Z,8.48
2019-06-20T19:22:38.282Z,8.20
2019-06-20T19:25:07.973Z,7.33
2019-06-20T19:27:45.979Z,7.00
2019-06-20T19:30:08.619Z,14.68
2019-06-20T19:32:37.328Z,41.25
2019-06-20T19:35:10.231Z,13.22
2019-06-20T19:37:38.235Z,8.60
2019-06-20T19:40:09.708Z,11.85
2019-06-20T19:42:38.547Z,9.30
2019-06-20T19:45:11.861Z,11.50
2019-06-20T19:47:41.101Z,7.70
2019-06-20T19:50:10.385Z,7.90
2019-06-20T19:52:39.703Z,6.20
2019-06-20T19:55:08.789Z,7.62
2019-06-20T19:57:37.462Z,7.12
2019-06-20T20:00:09.572Z,6.87
2019-06-20T20:02:38.279Z,6.33
2019-06-20T20:05:18.526Z,9.18
2019-06-20T20:07:44.933Z,5.33
2019-06-20T20:10:15.401Z,5.70
2019-06-20T20:12:44.013Z,6.25
2019-06-20T20:15:27.853Z,5.55
2019-06-20T20:17:56.461Z,9.60
2019-06-20T20:20:25.138Z,9.88
2019-06-20T20:22:53.841Z,18.77
2019-06-20T20:25:22.614Z,14.68
2019-06-20T20:27:51.274Z,8.80
2019-06-20T20:30:20.225Z,8.15
2019-06-20T20:32:48.949Z,10.80
2019-06-20T20:35:31.544Z,9.68
2019-06-20T20:37:48.051Z,10.55
2019-06-20T20:40:18.535Z,7.42
2019-06-20T20:42:47.140Z,7.65
2019-06-20T20:45:16.983Z,7.33
2019-06-20T20:47:45.677Z,5.30
2019-06-20T20:50:14.766Z,9.55
2019-06-20T20:52:43.423Z,9.53
2019-06-20T20:55:12.564Z,10.60
2019-06-20T20:57:53.338Z,10.80
2019-06-20T21:00:24.591Z,9.65
2019-06-20T21:02:54.053Z,13.00
2019-06-20T21:05:22.830Z,10.60
2019-06-20T21:07:51.601Z,10.88
2019-06-20T21:10:20.733Z,10.35
2019-06-20T21:12:49.430Z,10.93
2019-06-20T21:15:18.311Z,9.23
2019-06-20T21:17:46.986Z,14.23
2019-06-20T21:20:16.031Z,12.78
2019-06-20T21:22:44.826Z,10.48
2019-06-20T21:25:13.979Z,10.15
2019-06-20T21:27:42.709Z,10.82
2019-06-20T21:30:11.991Z,9.78
2019-06-20T21:32:41.753Z,10.50
2019-06-20T21:35:11.810Z,13.93
2019-06-20T21:37:40.510Z,13.20
2019-06-20T21:40:09.998Z,11.30
2019-06-20T21:42:38.636Z,13.28
2019-06-20T21:45:08.578Z,14.15
2019-06-20T21:47:37.338Z,14.20
2019-06-20T21:50:09.930Z,14.00
2019-06-20T21:52:39.019Z,13.15
2019-06-20T21:55:07.986Z,11.50
2019-06-20T21:57:42.634Z,12.55
2019-06-20T22:00:27.984Z,11.53
2019-06-20T22:02:56.861Z,13.28
2019-06-20T22:05:26.478Z,10.82
2019-06-20T22:07:59.738Z,12.75
2019-06-20T22:10:29.415Z,14.83
2019-06-20T22:12:58.217Z,15.93
2019-06-20T22:15:26.970Z,16.50
2019-06-20T22:17:55.710Z,16.52
2019-06-20T22:20:24.866Z,21.05
2019-06-20T22:22:53.615Z,28.02
2019-06-20T22:25:22.890Z,22.75
2019-06-20T22:28:36.249Z,17.60
2019-06-20T22:31:36.120Z,15.45
2019-06-20T22:34:05.082Z,12.15
2019-06-20T22:36:40.098Z,11.38
2019-06-20T22:39:05.896Z,13.62
2019-06-20T22:41:34.590Z,14.58
2019-06-20T22:44:03.381Z,8.55
2019-06-20T22:46:31.985Z,10.72
2019-06-20T22:49:00.714Z,10.32
2019-06-20T22:51:29.522Z,11.57
2019-06-20T22:53:58.277Z,9.95
2019-06-20T22:56:26.913Z,10.20
2019-06-20T22:58:55.512Z,10.90
2019-06-20T23:01:24.374Z,10.05
2019-06-20T23:03:53.130Z,10.78
2019-06-20T23:06:21.805Z,11.95
2019-06-20T23:08:50.621Z,10.43
2019-06-20T23:11:19.297Z,13.78
2019-06-20T23:13:48.014Z,11.43
2019-06-20T23:16:16.622Z,15.70
2019-06-20T23:18:45.274Z,12.00
2019-06-20T23:21:13.884Z,12.53
2019-06-20T23:23:42.593Z,16.73
2019-06-20T23:26:12.264Z,17.12
2019-06-20T23:28:40.900Z,10.32
2019-06-20T23:31:09.537Z,14.18
2019-06-20T23:33:38.251Z,15.83
2019-06-20T23:36:06.994Z,15.18
2019-06-20T23:38:35.675Z,21.87
2019-06-20T23:41:04.432Z,15.45
2019-06-20T23:43:33.038Z,15.60
2019-06-20T23:46:01.685Z,14.15
2019-06-20T23:48:30.353Z,13.53
2019-06-20T23:50:59.000Z,14.95
2019-06-20T23:53:28.351Z,15.10
2019-06-20T23:55:57.112Z,16.42
2019-06-20T23:58:25.733Z,15.98
